This is the latest recevied weather packets stored in our database for station/object KE0TNI-13. If no packets are shown the sender has not sent any weather packets the latest 10 day(s).
| Time | Temp. | Humidity | Pressure | Rain* | Wind** | Luminosity | Snow |
|---|---|---|---|---|---|---|---|
| 1778118243 | -1.67° C | 88% | 1018.7 hPa | 0 mm | - | 8 W/m² | - |
| 1778117939 | -1.67° C | 87% | 1019.1 hPa | 0 mm | - | 10 W/m² | - |
| 1778117636 | -1.11° C | 87% | 1018.7 hPa | 0 mm | - | 12 W/m² | - |
| 1778117334 | -1.11° C | 87% | 1018.8 hPa | 0.51 mm | - | 14 W/m² | - |
| 1778117030 | -1.11° C | 87% | 1018.9 hPa | 0.51 mm | - | 16 W/m² | - |
| 1778116727 | -0.56° C | 86% | 1018.7 hPa | 0 mm | - | 19 W/m² | - |
| 1778116424 | 0° C | 83% | 1018.9 hPa | 0 mm | - | 22 W/m² | - |
| 1778116124 | 0.56° C | 82% | 1018.7 hPa | 0 mm | - | 25 W/m² | - |
| 1778115819 | 1.11° C | 79% | 1018.7 hPa | 0 mm | - | 27 W/m² | - |
| 1778115517 | 2.22° C | 76% | 1018.7 hPa | 0.51 mm | - | 33 W/m² | - |
| 1778115213 | 2.78° C | 73% | 1018.5 hPa | 1.78 mm | - | 44 W/m² | - |
| 1778114910 | 3.89° C | 71% | 1018.5 hPa | 2.29 mm | - | 56 W/m² | - |
| 1778114607 | 5° C | 66% | 1018.7 hPa | 2.29 mm | - | 62 W/m² | - |
| 1778114305 | 6.67° C | 61% | 1018.7 hPa | 3.05 mm | - | 142 W/m² | - |
| 1778114000 | 6.11° C | 63% | 1018.8 hPa | 2.29 mm | - | 184 W/m² | - |
| 1778113695 | 5° C | 67% | 1018.4 hPa | 1.78 mm | - | 204 W/m² | - |
| 1778113391 | 5° C | 67% | 1018.4 hPa | 2.29 mm | - | 224 W/m² | - |
| 1778113089 | 4.44° C | 70% | 1018.7 hPa | 1.78 mm | - | 246 W/m² | - |
| 1778112786 | 5° C | 66% | 1018.7 hPa | 1.27 mm | - | 270 W/m² | - |
| 1778112483 | 5° C | 65% | 1018.3 hPa | 1.78 mm | - | 288 W/m² | - |
| 1778112178 | 5.56° C | 64% | 1018.7 hPa | 1.78 mm | - | 311 W/m² | - |
| 1778111875 | 5° C | 67% | 1018.2 hPa | 1.78 mm | - | 336 W/m² | - |
| 1778111570 | 4.44° C | 68% | 1018.3 hPa | 0.51 mm | - | 363 W/m² | - |
| 1778111268 | 3.89° C | 69% | 1018.4 hPa | 0 mm | - | 383 W/m² | - |
| 1778110965 | 4.44° C | 69% | 1018.3 hPa | 0 mm | - | 406 W/m² | - |
* Rain latest hour (hover to see other rain measurements)
** Current wind speed in m/s (hover to see current wind gust speed)